sensor_id;sensor_type;location;lat;lon;timestamp;temperature;humidity
11617;DHT22;5864;52.998;9.068;2022-10-13T00:01:33;10.00;99.90
11617;DHT22;5864;52.998;9.068;2022-10-13T00:04:00;10.00;99.90
11617;DHT22;5864;52.998;9.068;2022-10-13T00:06:28;10.00;99.90
11617;DHT22;5864;52.998;9.068;2022-10-13T00:08:58;10.00;99.90
11617;DHT22;5864;52.998;9.068;2022-10-13T00:11:27;10.00;99.90
11617;DHT22;5864;52.998;9.068;2022-10-13T00:13:58;10.00;99.90
11617;DHT22;5864;52.998;9.068;2022-10-13T00:16:26;10.00;99.90
11617;DHT22;5864;52.998;9.068;2022-10-13T00:18:54;9.90;99.90
11617;DHT22;5864;52.998;9.068;2022-10-13T00:21:23;9.90;99.90
11617;DHT22;5864;52.998;9.068;2022-10-13T00:23:52;9.90;99.90
11617;DHT22;5864;52.998;9.068;2022-10-13T00:26:22;9.90;99.90
11617;DHT22;5864;52.998;9.068;2022-10-13T00:28:50;9.90;99.90
11617;DHT22;5864;52.998;9.068;2022-10-13T00:31:20;9.80;99.90
11617;DHT22;5864;52.998;9.068;2022-10-13T00:33:48;9.80;99.90
11617;DHT22;5864;52.998;9.068;2022-10-13T00:36:16;9.80;99.90
11617;DHT22;5864;52.998;9.068;2022-10-13T00:38:43;9.70;99.90
11617;DHT22;5864;52.998;9.068;2022-10-13T00:41:11;9.70;99.90
11617;DHT22;5864;52.998;9.068;2022-10-13T00:43:57;9.70;99.90
11617;DHT22;5864;52.998;9.068;2022-10-13T00:46:28;9.70;99.90
11617;DHT22;5864;52.998;9.068;2022-10-13T00:48:58;9.70;99.90
11617;DHT22;5864;52.998;9.068;2022-10-13T00:51:29;9.70;99.90
11617;DHT22;5864;52.998;9.068;2022-10-13T00:53:58;9.70;99.90
11617;DHT22;5864;52.998;9.068;2022-10-13T00:56:27;9.70;99.90
11617;DHT22;5864;52.998;9.068;2022-10-13T00:58:55;9.70;99.90
11617;DHT22;5864;52.998;9.068;2022-10-13T01:01:23;9.70;99.90
11617;DHT22;5864;52.998;9.068;2022-10-13T01:03:52;9.70;99.90
11617;DHT22;5864;52.998;9.068;2022-10-13T01:06:20;9.60;99.90
11617;DHT22;5864;52.998;9.068;2022-10-13T01:08:48;9.60;99.90
11617;DHT22;5864;52.998;9.068;2022-10-13T01:11:35;9.60;99.90
11617;DHT22;5864;52.998;9.068;2022-10-13T01:14:12;9.60;99.90
11617;DHT22;5864;52.998;9.068;2022-10-13T01:16:46;9.60;99.90
11617;DHT22;5864;52.998;9.068;2022-10-13T01:19:37;9.60;99.90
11617;DHT22;5864;52.998;9.068;2022-10-13T01:22:19;9.60;99.90
11617;DHT22;5864;52.998;9.068;2022-10-13T01:24:56;9.60;99.90
11617;DHT22;5864;52.998;9.068;2022-10-13T01:27:45;9.60;99.90
11617;DHT22;5864;52.998;9.068;2022-10-13T01:30:18;9.60;99.90
11617;DHT22;5864;52.998;9.068;2022-10-13T01:32:54;9.50;99.90
11617;DHT22;5864;52.998;9.068;2022-10-13T01:35:30;9.50;99.90
11617;DHT22;5864;52.998;9.068;2022-10-13T01:38:05;9.50;99.90
11617;DHT22;5864;52.998;9.068;2022-10-13T01:40:39;9.50;99.90
11617;DHT22;5864;52.998;9.068;2022-10-13T01:43:10;9.50;99.90
11617;DHT22;5864;52.998;9.068;2022-10-13T01:45:46;9.40;99.90
11617;DHT22;5864;52.998;9.068;2022-10-13T01:48:15;9.40;99.90
11617;DHT22;5864;52.998;9.068;2022-10-13T01:50:44;9.50;99.90
11617;DHT22;5864;52.998;9.068;2022-10-13T01:53:13;9.60;99.90
11617;DHT22;5864;52.998;9.068;2022-10-13T01:55:50;9.50;99.90
11617;DHT22;5864;52.998;9.068;2022-10-13T01:58:18;9.50;99.90
11617;DHT22;5864;52.998;9.068;2022-10-13T02:03:47;9.50;99.90
11617;DHT22;5864;52.998;9.068;2022-10-13T02:06:20;9.60;99.90
11617;DHT22;5864;52.998;9.068;2022-10-13T02:08:56;9.60;99.90
11617;DHT22;5864;52.998;9.068;2022-10-13T02:11:24;9.60;99.90
11617;DHT22;5864;52.998;9.068;2022-10-13T02:13:58;9.60;99.90
11617;DHT22;5864;52.998;9.068;2022-10-13T02:16:30;9.60;99.90
11617;DHT22;5864;52.998;9.068;2022-10-13T02:18:58;9.60;99.90
11617;DHT22;5864;52.998;9.068;2022-10-13T02:21:25;9.60;99.90
11617;DHT22;5864;52.998;9.068;2022-10-13T02:23:53;9.60;99.90
11617;DHT22;5864;52.998;9.068;2022-10-13T02:26:21;9.60;99.90
11617;DHT22;5864;52.998;9.068;2022-10-13T02:28:48;9.60;99.90
11617;DHT22;5864;52.998;9.068;2022-10-13T02:31:16;9.60;99.90
11617;DHT22;5864;52.998;9.068;2022-10-13T02:33:44;9.50;99.90
11617;DHT22;5864;52.998;9.068;2022-10-13T02:36:12;9.50;99.90
11617;DHT22;5864;52.998;9.068;2022-10-13T02:38:39;9.50;99.90
11617;DHT22;5864;52.998;9.068;2022-10-13T02:41:07;9.50;99.90
11617;DHT22;5864;52.998;9.068;2022-10-13T02:43:35;9.50;99.90
11617;DHT22;5864;52.998;9.068;2022-10-13T02:46:03;9.50;99.90
11617;DHT22;5864;52.998;9.068;2022-10-13T02:48:31;9.40;99.90
11617;DHT22;5864;52.998;9.068;2022-10-13T02:51:00;9.50;99.90
11617;DHT22;5864;52.998;9.068;2022-10-13T02:53:27;9.40;99.90
11617;DHT22;5864;52.998;9.068;2022-10-13T02:55:55;9.50;99.90
11617;DHT22;5864;52.998;9.068;2022-10-13T02:58:22;9.40;99.90
11617;DHT22;5864;52.998;9.068;2022-10-13T03:00:50;9.40;99.90
11617;DHT22;5864;52.998;9.068;2022-10-13T03:03:17;9.40;99.90
11617;DHT22;5864;52.998;9.068;2022-10-13T03:05:45;9.40;99.90
11617;DHT22;5864;52.998;9.068;2022-10-13T03:08:13;9.40;99.90
11617;DHT22;5864;52.998;9.068;2022-10-13T03:10:41;9.30;99.90
11617;DHT22;5864;52.998;9.068;2022-10-13T03:13:08;9.30;99.90
11617;DHT22;5864;52.998;9.068;2022-10-13T03:15:36;9.40;99.90
11617;DHT22;5864;52.998;9.068;2022-10-13T03:18:03;9.40;99.90
11617;DHT22;5864;52.998;9.068;2022-10-13T03:20:31;9.40;99.90
11617;DHT22;5864;52.998;9.068;2022-10-13T03:22:58;9.30;99.90
11617;DHT22;5864;52.998;9.068;2022-10-13T03:25:27;9.30;99.90
11617;DHT22;5864;52.998;9.068;2022-10-13T03:27:55;9.30;99.90
11617;DHT22;5864;52.998;9.068;2022-10-13T03:30:22;9.30;99.90
11617;DHT22;5864;52.998;9.068;2022-10-13T03:32:50;9.40;99.90
11617;DHT22;5864;52.998;9.068;2022-10-13T03:35:18;9.40;99.90
11617;DHT22;5864;52.998;9.068;2022-10-13T03:37:46;9.40;99.90
11617;DHT22;5864;52.998;9.068;2022-10-13T03:40:14;9.50;99.90
11617;DHT22;5864;52.998;9.068;2022-10-13T03:42:42;9.40;99.90
11617;DHT22;5864;52.998;9.068;2022-10-13T03:45:10;9.50;99.90
11617;DHT22;5864;52.998;9.068;2022-10-13T03:47:38;9.50;99.90
11617;DHT22;5864;52.998;9.068;2022-10-13T03:50:06;9.50;99.90
11617;DHT22;5864;52.998;9.068;2022-10-13T03:52:34;9.50;99.90
11617;DHT22;5864;52.998;9.068;2022-10-13T03:55:01;9.50;99.90
11617;DHT22;5864;52.998;9.068;2022-10-13T03:57:29;9.50;99.90
11617;DHT22;5864;52.998;9.068;2022-10-13T03:59:58;9.50;99.90
11617;DHT22;5864;52.998;9.068;2022-10-13T04:02:26;9.60;99.90
11617;DHT22;5864;52.998;9.068;2022-10-13T04:04:54;9.60;99.90
11617;DHT22;5864;52.998;9.068;2022-10-13T04:07:21;9.60;99.90
11617;DHT22;5864;52.998;9.068;2022-10-13T04:09:49;9.60;99.90
11617;DHT22;5864;52.998;9.068;2022-10-13T04:12:16;9.60;99.90
11617;DHT22;5864;52.998;9.068;2022-10-13T04:14:44;9.60;99.90
11617;DHT22;5864;52.998;9.068;2022-10-13T04:17:13;9.60;99.90
11617;DHT22;5864;52.998;9.068;2022-10-13T04:19:40;9.60;99.90
11617;DHT22;5864;52.998;9.068;2022-10-13T04:22:08;9.60;99.90
11617;DHT22;5864;52.998;9.068;2022-10-13T04:24:35;9.60;99.90
11617;DHT22;5864;52.998;9.068;2022-10-13T04:27:02;9.60;99.90
11617;DHT22;5864;52.998;9.068;2022-10-13T04:29:30;9.60;99.90
11617;DHT22;5864;52.998;9.068;2022-10-13T04:31:58;9.60;99.90
11617;DHT22;5864;52.998;9.068;2022-10-13T04:34:27;9.60;99.90
11617;DHT22;5864;52.998;9.068;2022-10-13T04:36:54;9.60;99.90
11617;DHT22;5864;52.998;9.068;2022-10-13T04:39:22;9.60;99.90
11617;DHT22;5864;52.998;9.068;2022-10-13T04:41:49;9.60;99.90
11617;DHT22;5864;52.998;9.068;2022-10-13T04:44:16;9.70;99.90
11617;DHT22;5864;52.998;9.068;2022-10-13T04:46:44;9.60;99.90
11617;DHT22;5864;52.998;9.068;2022-10-13T04:49:11;9.60;99.90
11617;DHT22;5864;52.998;9.068;2022-10-13T04:51:41;9.60;99.90
11617;DHT22;5864;52.998;9.068;2022-10-13T04:54:09;9.50;99.90
11617;DHT22;5864;52.998;9.068;2022-10-13T04:56:37;9.50;99.90
11617;DHT22;5864;52.998;9.068;2022-10-13T04:59:04;9.50;99.90
11617;DHT22;5864;52.998;9.068;2022-10-13T05:01:32;9.50;99.90
11617;DHT22;5864;52.998;9.068;2022-10-13T05:04:02;9.60;99.90
11617;DHT22;5864;52.998;9.068;2022-10-13T05:06:31;9.60;99.90
11617;DHT22;5864;52.998;9.068;2022-10-13T05:09:01;9.60;99.90
11617;DHT22;5864;52.998;9.068;2022-10-13T05:11:29;9.60;99.90
11617;DHT22;5864;52.998;9.068;2022-10-13T05:13:57;9.50;99.90
11617;DHT22;5864;52.998;9.068;2022-10-13T05:16:25;9.60;99.90
11617;DHT22;5864;52.998;9.068;2022-10-13T05:18:54;9.60;99.90
11617;DHT22;5864;52.998;9.068;2022-10-13T05:21:26;9.70;99.90
11617;DHT22;5864;52.998;9.068;2022-10-13T05:23:59;9.70;99.90
11617;DHT22;5864;52.998;9.068;2022-10-13T05:26:28;9.70;99.90
11617;DHT22;5864;52.998;9.068;2022-10-13T05:28:58;9.70;99.90
11617;DHT22;5864;52.998;9.068;2022-10-13T05:31:26;9.70;99.90
11617;DHT22;5864;52.998;9.068;2022-10-13T05:33:55;9.60;99.90
11617;DHT22;5864;52.998;9.068;2022-10-13T05:36:24;9.70;99.90
11617;DHT22;5864;52.998;9.068;2022-10-13T05:38:53;9.70;99.90
11617;DHT22;5864;52.998;9.068;2022-10-13T05:41:23;9.80;99.90
11617;DHT22;5864;52.998;9.068;2022-10-13T05:43:53;9.80;99.90
11617;DHT22;5864;52.998;9.068;2022-10-13T05:46:22;9.80;99.90
11617;DHT22;5864;52.998;9.068;2022-10-13T05:48:50;9.80;99.90
11617;DHT22;5864;52.998;9.068;2022-10-13T05:51:23;11.20;99.90
11617;DHT22;5864;52.998;9.068;2022-10-13T05:53:54;9.80;99.90
11617;DHT22;5864;52.998;9.068;2022-10-13T05:56:30;9.70;99.90
11617;DHT22;5864;52.998;9.068;2022-10-13T05:59:00;9.70;99.90
11617;DHT22;5864;52.998;9.068;2022-10-13T06:01:31;9.70;99.90
11617;DHT22;5864;52.998;9.068;2022-10-13T06:04:03;9.70;99.90
11617;DHT22;5864;52.998;9.068;2022-10-13T06:06:32;9.80;99.90
11617;DHT22;5864;52.998;9.068;2022-10-13T06:09:00;9.80;99.90
11617;DHT22;5864;52.998;9.068;2022-10-13T06:11:29;9.80;99.90
11617;DHT22;5864;52.998;9.068;2022-10-13T06:13:56;9.90;99.90
11617;DHT22;5864;52.998;9.068;2022-10-13T06:16:24;9.90;99.90
11617;DHT22;5864;52.998;9.068;2022-10-13T06:18:51;9.90;99.90
11617;DHT22;5864;52.998;9.068;2022-10-13T06:21:19;10.00;99.90
11617;DHT22;5864;52.998;9.068;2022-10-13T06:23:46;10.00;99.90
11617;DHT22;5864;52.998;9.068;2022-10-13T06:26:14;10.00;99.90
11617;DHT22;5864;52.998;9.068;2022-10-13T06:28:43;10.00;99.90
11617;DHT22;5864;52.998;9.068;2022-10-13T06:31:11;10.00;99.90
11617;DHT22;5864;52.998;9.068;2022-10-13T06:33:39;10.00;99.90
11617;DHT22;5864;52.998;9.068;2022-10-13T06:36:07;10.00;99.90
11617;DHT22;5864;52.998;9.068;2022-10-13T06:38:35;10.00;99.90
11617;DHT22;5864;52.998;9.068;2022-10-13T06:41:03;10.10;99.90
11617;DHT22;5864;52.998;9.068;2022-10-13T06:43:31;10.10;99.90
11617;DHT22;5864;52.998;9.068;2022-10-13T06:46:00;10.10;99.90
11617;DHT22;5864;52.998;9.068;2022-10-13T06:48:28;10.20;99.90
11617;DHT22;5864;52.998;9.068;2022-10-13T06:50:59;10.20;99.90
11617;DHT22;5864;52.998;9.068;2022-10-13T06:53:27;10.10;99.90
11617;DHT22;5864;52.998;9.068;2022-10-13T06:55:56;10.20;99.90
11617;DHT22;5864;52.998;9.068;2022-10-13T06:58:24;10.20;99.90
11617;DHT22;5864;52.998;9.068;2022-10-13T07:00:51;10.30;99.90
11617;DHT22;5864;52.998;9.068;2022-10-13T07:03:20;10.40;99.90
11617;DHT22;5864;52.998;9.068;2022-10-13T07:05:48;10.40;99.90
11617;DHT22;5864;52.998;9.068;2022-10-13T07:08:16;10.40;99.90
11617;DHT22;5864;52.998;9.068;2022-10-13T07:10:44;10.50;99.90
11617;DHT22;5864;52.998;9.068;2022-10-13T07:13:11;10.50;99.90
11617;DHT22;5864;52.998;9.068;2022-10-13T07:15:39;10.60;99.90
11617;DHT22;5864;52.998;9.068;2022-10-13T07:18:06;10.60;99.90
11617;DHT22;5864;52.998;9.068;2022-10-13T07:20:36;10.50;99.90
11617;DHT22;5864;52.998;9.068;2022-10-13T07:23:03;10.60;99.90
11617;DHT22;5864;52.998;9.068;2022-10-13T07:25:31;10.70;99.90
11617;DHT22;5864;52.998;9.068;2022-10-13T07:27:58;10.80;99.90
11617;DHT22;5864;52.998;9.068;2022-10-13T07:30:26;10.90;99.90
11617;DHT22;5864;52.998;9.068;2022-10-13T07:32:53;11.00;99.90
11617;DHT22;5864;52.998;9.068;2022-10-13T07:35:21;11.00;99.90
11617;DHT22;5864;52.998;9.068;2022-10-13T07:37:52;11.10;99.90
11617;DHT22;5864;52.998;9.068;2022-10-13T07:40:20;11.20;99.90
11617;DHT22;5864;52.998;9.068;2022-10-13T07:42:47;11.30;99.90
11617;DHT22;5864;52.998;9.068;2022-10-13T07:45:15;11.30;99.90
11617;DHT22;5864;52.998;9.068;2022-10-13T07:47:42;11.50;99.90
11617;DHT22;5864;52.998;9.068;2022-10-13T07:50:10;11.60;99.90
11617;DHT22;5864;52.998;9.068;2022-10-13T07:52:38;11.60;99.90
11617;DHT22;5864;52.998;9.068;2022-10-13T07:55:08;11.60;99.90
11617;DHT22;5864;52.998;9.068;2022-10-13T07:57:35;11.70;99.90
11617;DHT22;5864;52.998;9.068;2022-10-13T08:00:04;11.70;99.90
11617;DHT22;5864;52.998;9.068;2022-10-13T08:02:32;11.80;99.90
11617;DHT22;5864;52.998;9.068;2022-10-13T08:05:01;11.80;99.90
11617;DHT22;5864;52.998;9.068;2022-10-13T08:07:28;11.90;99.90
11617;DHT22;5864;52.998;9.068;2022-10-13T08:09:56;12.00;99.90
11617;DHT22;5864;52.998;9.068;2022-10-13T08:12:25;12.00;99.90
11617;DHT22;5864;52.998;9.068;2022-10-13T08:14:52;12.00;99.90
11617;DHT22;5864;52.998;9.068;2022-10-13T08:17:20;12.10;99.90
11617;DHT22;5864;52.998;9.068;2022-10-13T08:19:49;12.00;99.90
11617;DHT22;5864;52.998;9.068;2022-10-13T08:22:17;12.10;99.90
11617;DHT22;5864;52.998;9.068;2022-10-13T08:24:44;12.20;99.90
11617;DHT22;5864;52.998;9.068;2022-10-13T08:27:17;12.40;99.90
11617;DHT22;5864;52.998;9.068;2022-10-13T08:29:47;12.70;99.90
11617;DHT22;5864;52.998;9.068;2022-10-13T08:32:14;13.60;99.90
11617;DHT22;5864;52.998;9.068;2022-10-13T08:34:43;14.60;99.90
11617;DHT22;5864;52.998;9.068;2022-10-13T08:37:12;15.80;99.90
11617;DHT22;5864;52.998;9.068;2022-10-13T08:39:40;16.90;99.90
11617;DHT22;5864;52.998;9.068;2022-10-13T08:42:14;16.80;99.90
11617;DHT22;5864;52.998;9.068;2022-10-13T08:44:47;16.40;99.90
11617;DHT22;5864;52.998;9.068;2022-10-13T08:47:27;15.80;99.90
11617;DHT22;5864;52.998;9.068;2022-10-13T08:49:59;15.30;99.90
11617;DHT22;5864;52.998;9.068;2022-10-13T08:52:39;14.90;99.90
11617;DHT22;5864;52.998;9.068;2022-10-13T08:55:10;14.80;99.90
11617;DHT22;5864;52.998;9.068;2022-10-13T08:57:42;14.60;99.90
11617;DHT22;5864;52.998;9.068;2022-10-13T09:00:12;14.40;99.90
11617;DHT22;5864;52.998;9.068;2022-10-13T09:02:42;14.30;99.90
11617;DHT22;5864;52.998;9.068;2022-10-13T09:05:14;14.40;87.20
11617;DHT22;5864;52.998;9.068;2022-10-13T09:07:45;14.60;75.20
11617;DHT22;5864;52.998;9.068;2022-10-13T09:10:13;14.70;68.00
11617;DHT22;5864;52.998;9.068;2022-10-13T09:12:41;15.10;73.60
11617;DHT22;5864;52.998;9.068;2022-10-13T09:15:11;15.40;24.20
11617;DHT22;5864;52.998;9.068;2022-10-13T09:17:40;15.50;27.00
11617;DHT22;5864;52.998;9.068;2022-10-13T09:20:18;15.60;20.60
11617;DHT22;5864;52.998;9.068;2022-10-13T09:23:00;15.70;14.70
11617;DHT22;5864;52.998;9.068;2022-10-13T09:25:28;15.60;25.80
11617;DHT22;5864;52.998;9.068;2022-10-13T09:27:57;15.60;99.90
11617;DHT22;5864;52.998;9.068;2022-10-13T09:30:29;15.70;99.90
11617;DHT22;5864;52.998;9.068;2022-10-13T09:33:21;15.80;99.90
11617;DHT22;5864;52.998;9.068;2022-10-13T09:36:09;16.00;99.90
11617;DHT22;5864;52.998;9.068;2022-10-13T09:38:38;16.60;99.90
11617;DHT22;5864;52.998;9.068;2022-10-13T09:41:18;17.60;99.90
11617;DHT22;5864;52.998;9.068;2022-10-13T09:43:58;17.80;1.00
11617;DHT22;5864;52.998;9.068;2022-10-13T09:46:30;17.50;1.00
11617;DHT22;5864;52.998;9.068;2022-10-13T09:49:02;17.50;1.00
11617;DHT22;5864;52.998;9.068;2022-10-13T09:51:34;17.40;1.00
11617;DHT22;5864;52.998;9.068;2022-10-13T09:54:03;17.30;1.00
11617;DHT22;5864;52.998;9.068;2022-10-13T09:56:36;16.60;1.00
11617;DHT22;5864;52.998;9.068;2022-10-13T09:59:12;16.50;1.00
11617;DHT22;5864;52.998;9.068;2022-10-13T10:01:43;16.60;1.00
11617;DHT22;5864;52.998;9.068;2022-10-13T10:04:15;16.80;1.00
11617;DHT22;5864;52.998;9.068;2022-10-13T10:06:44;17.30;1.00
11617;DHT22;5864;52.998;9.068;2022-10-13T10:09:33;17.80;1.00
11617;DHT22;5864;52.998;9.068;2022-10-13T10:12:04;18.30;1.00
11617;DHT22;5864;52.998;9.068;2022-10-13T10:14:36;18.50;1.00
11617;DHT22;5864;52.998;9.068;2022-10-13T10:17:13;18.80;1.00
11617;DHT22;5864;52.998;9.068;2022-10-13T10:19:50;19.40;99.90
11617;DHT22;5864;52.998;9.068;2022-10-13T10:22:24;19.90;99.90
11617;DHT22;5864;52.998;9.068;2022-10-13T10:25:00;19.90;99.90
11617;DHT22;5864;52.998;9.068;2022-10-13T10:27:34;19.80;99.90
11617;DHT22;5864;52.998;9.068;2022-10-13T10:30:07;20.00;99.90
11617;DHT22;5864;52.998;9.068;2022-10-13T10:32:44;20.40;99.90
11617;DHT22;5864;52.998;9.068;2022-10-13T10:35:16;20.70;99.90
11617;DHT22;5864;52.998;9.068;2022-10-13T10:38:01;20.70;99.90
11617;DHT22;5864;52.998;9.068;2022-10-13T10:40:36;20.60;99.90
11617;DHT22;5864;52.998;9.068;2022-10-13T10:43:40;20.70;99.90
11617;DHT22;5864;52.998;9.068;2022-10-13T10:46:14;20.50;99.90
11617;DHT22;5864;52.998;9.068;2022-10-13T10:48:44;20.60;99.90
11617;DHT22;5864;52.998;9.068;2022-10-13T10:51:13;20.60;99.90
11617;DHT22;5864;52.998;9.068;2022-10-13T10:53:50;20.70;99.90
11617;DHT22;5864;52.998;9.068;2022-10-13T10:56:26;20.60;99.90
11617;DHT22;5864;52.998;9.068;2022-10-13T10:59:04;20.40;99.90
11617;DHT22;5864;52.998;9.068;2022-10-13T11:01:39;20.70;99.90
11617;DHT22;5864;52.998;9.068;2022-10-13T11:04:32;21.00;99.90
11617;DHT22;5864;52.998;9.068;2022-10-13T11:07:02;20.90;99.90
11617;DHT22;5864;52.998;9.068;2022-10-13T11:10:15;20.70;99.90
11617;DHT22;5864;52.998;9.068;2022-10-13T11:13:11;20.50;99.90
11617;DHT22;5864;52.998;9.068;2022-10-13T11:15:42;20.40;99.90
11617;DHT22;5864;52.998;9.068;2022-10-13T11:21:21;20.50;99.90
11617;DHT22;5864;52.998;9.068;2022-10-13T11:23:49;21.00;99.90
11617;DHT22;5864;52.998;9.068;2022-10-13T11:29:16;21.50;99.90
11617;DHT22;5864;52.998;9.068;2022-10-13T11:31:50;21.80;99.90
11617;DHT22;5864;52.998;9.068;2022-10-13T11:34:29;21.40;99.90
11617;DHT22;5864;52.998;9.068;2022-10-13T11:37:00;21.10;99.90
11617;DHT22;5864;52.998;9.068;2022-10-13T11:42:48;19.80;99.90
11617;DHT22;5864;52.998;9.068;2022-10-13T11:45:39;19.30;99.90
11617;DHT22;5864;52.998;9.068;2022-10-13T11:51:15;18.30;99.90
11617;DHT22;5864;52.998;9.068;2022-10-13T11:53:54;18.20;99.90
11617;DHT22;5864;52.998;9.068;2022-10-13T11:56:33;18.30;99.90
11617;DHT22;5864;52.998;9.068;2022-10-13T11:59:01;18.20;99.90
11617;DHT22;5864;52.998;9.068;2022-10-13T12:01:28;17.90;99.90
11617;DHT22;5864;52.998;9.068;2022-10-13T12:03:56;17.70;99.90
11617;DHT22;5864;52.998;9.068;2022-10-13T12:06:29;16.40;99.90
11617;DHT22;5864;52.998;9.068;2022-10-13T12:09:12;17.60;99.90
11617;DHT22;5864;52.998;9.068;2022-10-13T12:11:41;17.70;99.90
11617;DHT22;5864;52.998;9.068;2022-10-13T12:14:19;17.80;99.90
11617;DHT22;5864;52.998;9.068;2022-10-13T12:16:53;17.90;99.90
11617;DHT22;5864;52.998;9.068;2022-10-13T12:19:24;17.80;99.90
11617;DHT22;5864;52.998;9.068;2022-10-13T12:21:53;17.70;99.90
11617;DHT22;5864;52.998;9.068;2022-10-13T12:24:24;17.70;99.90
11617;DHT22;5864;52.998;9.068;2022-10-13T12:26:52;17.70;99.90
11617;DHT22;5864;52.998;9.068;2022-10-13T12:29:22;17.60;99.90
11617;DHT22;5864;52.998;9.068;2022-10-13T12:31:50;17.50;99.90
11617;DHT22;5864;52.998;9.068;2022-10-13T12:34:22;17.60;99.90
11617;DHT22;5864;52.998;9.068;2022-10-13T12:36:56;17.50;99.90
11617;DHT22;5864;52.998;9.068;2022-10-13T12:39:27;17.50;99.90
11617;DHT22;5864;52.998;9.068;2022-10-13T12:41:55;17.60;99.90
11617;DHT22;5864;52.998;9.068;2022-10-13T12:44:25;17.60;99.90
11617;DHT22;5864;52.998;9.068;2022-10-13T12:46:55;17.70;99.90
11617;DHT22;5864;52.998;9.068;2022-10-13T12:49:25;17.70;99.90
11617;DHT22;5864;52.998;9.068;2022-10-13T12:51:56;17.60;99.90
11617;DHT22;5864;52.998;9.068;2022-10-13T12:54:28;17.50;99.90
11617;DHT22;5864;52.998;9.068;2022-10-13T12:56:58;17.40;99.90
11617;DHT22;5864;52.998;9.068;2022-10-13T12:59:27;17.40;99.90
11617;DHT22;5864;52.998;9.068;2022-10-13T13:01:58;17.50;99.90
11617;DHT22;5864;52.998;9.068;2022-10-13T13:04:41;17.60;99.90
11617;DHT22;5864;52.998;9.068;2022-10-13T13:07:26;17.60;99.90
11617;DHT22;5864;52.998;9.068;2022-10-13T13:10:16;17.70;99.90
11617;DHT22;5864;52.998;9.068;2022-10-13T13:12:44;17.70;99.90
11617;DHT22;5864;52.998;9.068;2022-10-13T13:15:33;17.70;99.90
11617;DHT22;5864;52.998;9.068;2022-10-13T13:18:21;17.80;99.90
11617;DHT22;5864;52.998;9.068;2022-10-13T13:20:49;17.80;99.90
11617;DHT22;5864;52.998;9.068;2022-10-13T13:23:17;17.80;99.90
11617;DHT22;5864;52.998;9.068;2022-10-13T13:25:59;17.70;99.90
11617;DHT22;5864;52.998;9.068;2022-10-13T13:28:29;17.70;99.90
11617;DHT22;5864;52.998;9.068;2022-10-13T13:30:56;17.60;99.90
11617;DHT22;5864;52.998;9.068;2022-10-13T13:33:24;17.60;99.90
11617;DHT22;5864;52.998;9.068;2022-10-13T13:35:52;17.70;99.90
11617;DHT22;5864;52.998;9.068;2022-10-13T13:38:20;17.70;99.90
11617;DHT22;5864;52.998;9.068;2022-10-13T13:40:49;17.70;99.90
11617;DHT22;5864;52.998;9.068;2022-10-13T13:43:16;17.80;99.90
11617;DHT22;5864;52.998;9.068;2022-10-13T13:45:44;17.90;99.90
11617;DHT22;5864;52.998;9.068;2022-10-13T13:48:11;17.90;99.90
11617;DHT22;5864;52.998;9.068;2022-10-13T13:50:42;18.10;99.90
11617;DHT22;5864;52.998;9.068;2022-10-13T13:53:10;18.30;99.90
11617;DHT22;5864;52.998;9.068;2022-10-13T13:55:38;18.60;99.90
11617;DHT22;5864;52.998;9.068;2022-10-13T13:58:07;18.70;99.90
11617;DHT22;5864;52.998;9.068;2022-10-13T14:00:35;19.00;99.90
11617;DHT22;5864;52.998;9.068;2022-10-13T14:03:02;19.20;99.90
11617;DHT22;5864;52.998;9.068;2022-10-13T14:05:30;19.30;99.90
11617;DHT22;5864;52.998;9.068;2022-10-13T14:07:57;19.00;99.90
11617;DHT22;5864;52.998;9.068;2022-10-13T14:10:26;18.90;99.90
11617;DHT22;5864;52.998;9.068;2022-10-13T14:12:54;18.90;99.90
11617;DHT22;5864;52.998;9.068;2022-10-13T14:15:23;18.50;99.90
11617;DHT22;5864;52.998;9.068;2022-10-13T14:17:51;18.40;99.90
11617;DHT22;5864;52.998;9.068;2022-10-13T14:20:18;18.10;99.90
11617;DHT22;5864;52.998;9.068;2022-10-13T14:22:46;17.90;99.90
11617;DHT22;5864;52.998;9.068;2022-10-13T14:25:13;17.70;99.90
11617;DHT22;5864;52.998;9.068;2022-10-13T14:27:41;17.70;99.90
11617;DHT22;5864;52.998;9.068;2022-10-13T14:30:11;17.60;99.90
11617;DHT22;5864;52.998;9.068;2022-10-13T14:32:41;17.50;99.90
11617;DHT22;5864;52.998;9.068;2022-10-13T14:35:09;17.50;99.90
11617;DHT22;5864;52.998;9.068;2022-10-13T14:37:36;17.30;99.90
11617;DHT22;5864;52.998;9.068;2022-10-13T14:40:04;17.30;99.90
11617;DHT22;5864;52.998;9.068;2022-10-13T14:42:32;17.30;99.90
11617;DHT22;5864;52.998;9.068;2022-10-13T14:44:59;17.30;99.90
11617;DHT22;5864;52.998;9.068;2022-10-13T14:47:28;17.20;99.90
11617;DHT22;5864;52.998;9.068;2022-10-13T14:49:57;17.10;99.90
11617;DHT22;5864;52.998;9.068;2022-10-13T14:52:26;17.10;99.90
11617;DHT22;5864;52.998;9.068;2022-10-13T14:54:53;16.90;99.90
11617;DHT22;5864;52.998;9.068;2022-10-13T14:57:21;16.90;99.90
11617;DHT22;5864;52.998;9.068;2022-10-13T14:59:48;16.80;99.90
11617;DHT22;5864;52.998;9.068;2022-10-13T15:02:16;16.80;99.90
11617;DHT22;5864;52.998;9.068;2022-10-13T15:04:44;16.90;99.90
11617;DHT22;5864;52.998;9.068;2022-10-13T15:07:13;16.90;99.90
11617;DHT22;5864;52.998;9.068;2022-10-13T15:09:40;16.80;99.90
11617;DHT22;5864;52.998;9.068;2022-10-13T15:12:07;16.80;99.90
11617;DHT22;5864;52.998;9.068;2022-10-13T15:14:35;16.70;99.90
11617;DHT22;5864;52.998;9.068;2022-10-13T15:17:02;16.70;99.90
11617;DHT22;5864;52.998;9.068;2022-10-13T15:19:30;16.70;99.90
11617;DHT22;5864;52.998;9.068;2022-10-13T15:21:57;16.70;99.90
11617;DHT22;5864;52.998;9.068;2022-10-13T15:24:26;16.70;99.90
11617;DHT22;5864;52.998;9.068;2022-10-13T15:26:53;16.60;99.90
11617;DHT22;5864;52.998;9.068;2022-10-13T15:29:21;16.80;99.90
11617;DHT22;5864;52.998;9.068;2022-10-13T15:31:48;16.70;99.90
11617;DHT22;5864;52.998;9.068;2022-10-13T15:34:16;16.70;99.90
11617;DHT22;5864;52.998;9.068;2022-10-13T15:36:44;16.70;99.90
11617;DHT22;5864;52.998;9.068;2022-10-13T15:39:11;16.70;99.90
11617;DHT22;5864;52.998;9.068;2022-10-13T15:41:40;16.70;99.90
11617;DHT22;5864;52.998;9.068;2022-10-13T15:44:08;16.60;99.90
11617;DHT22;5864;52.998;9.068;2022-10-13T15:46:35;16.50;99.90
11617;DHT22;5864;52.998;9.068;2022-10-13T15:49:03;16.50;99.90
11617;DHT22;5864;52.998;9.068;2022-10-13T15:51:31;16.40;99.90
11617;DHT22;5864;52.998;9.068;2022-10-13T15:53:58;16.40;99.90
11617;DHT22;5864;52.998;9.068;2022-10-13T15:56:26;16.40;99.90
11617;DHT22;5864;52.998;9.068;2022-10-13T15:58:55;16.30;99.90
11617;DHT22;5864;52.998;9.068;2022-10-13T16:01:22;16.30;99.90
11617;DHT22;5864;52.998;9.068;2022-10-13T16:03:52;16.30;99.90
11617;DHT22;5864;52.998;9.068;2022-10-13T16:06:20;16.20;99.90
11617;DHT22;5864;52.998;9.068;2022-10-13T16:08:48;16.20;99.90
11617;DHT22;5864;52.998;9.068;2022-10-13T16:11:17;16.20;99.90
11617;DHT22;5864;52.998;9.068;2022-10-13T16:13:47;16.20;99.90
11617;DHT22;5864;52.998;9.068;2022-10-13T16:16:16;16.10;99.90
11617;DHT22;5864;52.998;9.068;2022-10-13T16:18:44;16.10;99.90
11617;DHT22;5864;52.998;9.068;2022-10-13T16:21:14;16.00;99.90
11617;DHT22;5864;52.998;9.068;2022-10-13T16:23:42;16.00;99.90
11617;DHT22;5864;52.998;9.068;2022-10-13T16:26:10;16.00;99.90
11617;DHT22;5864;52.998;9.068;2022-10-13T16:28:38;16.00;99.90